PWSweather.com
Personal Weather Stations
Station Observations
INORDPAS37
Bondues, BonduesFR 59910

BonduesBonduesFR 59910

Lat: 50.7, Lon: 3.09

Elevation: 66

Station Type: NetAtmo

High Low Average
Temperature 62.2°F16.8°C 46.4°F8.0°C 53.5°F11.9°C
Dew Point 43.3°F6.3°C 33.1°F0.6°C 38.9°F3.8°C
Winds 4.9 mph 7.9 kmh Calm Calm 2.0 mph SW3.2 kmh SW
Wind Gusts 12.5 mph20.1 kmh 0.7 mph1.1 kmh 6.0 mph9.7 kmh
Humidity 72% 49% 63%
Pressure 30.17 in1021.7 mb 29.88 in1011.9 mb -
Precipitation 0.00 in0.0 mm - -
Hour Temp Dew Point Humidity Winds Wind Gusts Pressure Precip Precip Rate Daily Precip Total
12:09 AM 51.8°F11.0°C 39.9°F4.4°C 69% 1.8 mph SW2.9 kmh SW 3.1 mph5.0 kmh 29.88 in1011.9 mb 0.00 in0.0 mm 0.00 in0.0 mm 0.00 in0.0 mm
12:26 AM 51.4°F10.8°C 39.6°F4.2°C 69% 1.3 mph SW2.1 kmh SW 3.8 mph6.1 kmh 29.88 in1011.9 mb 0.00 in0.0 mm 0.00 in0.0 mm 0.00 in0.0 mm
12:47 AM 50.9°F10.5°C 39.0°F3.9°C 69% 2.5 mph WSW4.0 kmh WSW 5.6 mph9.0 kmh 29.88 in1011.9 mb 0.00 in0.0 mm 0.00 in0.0 mm 0.00 in0.0 mm
01:04 AM 50.5°F10.3°C 38.7°F3.7°C 69% 2.5 mph SW4.0 kmh SW 6.9 mph11.1 kmh 29.89 in1012.2 mb 0.00 in0.0 mm 0.00 in0.0 mm 0.00 in0.0 mm
01:23 AM 50.0°F10.0°C 38.7°F3.7°C 70% 3.1 mph SW5.0 kmh SW 4.9 mph7.9 kmh 29.89 in1012.2 mb 0.00 in0.0 mm 0.00 in0.0 mm 0.00 in0.0 mm
01:43 AM 49.8°F9.9°C 38.5°F3.6°C 70% 1.8 mph SW2.9 kmh SW 4.3 mph6.9 kmh 29.88 in1011.9 mb 0.00 in0.0 mm 0.00 in0.0 mm 0.00 in0.0 mm
02:07 AM 49.8°F9.9°C 38.5°F3.6°C 70% 1.8 mph WSW2.9 kmh WSW 3.8 mph6.1 kmh 29.89 in1012.2 mb 0.00 in0.0 mm 0.00 in0.0 mm 0.00 in0.0 mm
02:28 AM 49.6°F9.8°C 38.3°F3.5°C 70% 1.3 mph SW2.1 kmh SW 3.8 mph6.1 kmh 29.90 in1012.5 mb 0.00 in0.0 mm 0.00 in0.0 mm 0.00 in0.0 mm
02:48 AM 48.9°F9.4°C 37.6°F3.1°C 70% 1.8 mph SW2.9 kmh SW 3.8 mph6.1 kmh 29.90 in1012.5 mb 0.00 in0.0 mm 0.00 in0.0 mm 0.00 in0.0 mm
03:08 AM 48.4°F9.1°C 37.0°F2.8°C 70% 1.3 mph SW2.1 kmh SW 3.1 mph5.0 kmh 29.91 in1012.9 mb 0.00 in0.0 mm 0.00 in0.0 mm 0.00 in0.0 mm
03:24 AM 48.0°F8.9°C 36.7°F2.6°C 70% 1.8 mph SW2.9 kmh SW 3.8 mph6.1 kmh 29.91 in1012.9 mb 0.00 in0.0 mm 0.00 in0.0 mm 0.00 in0.0 mm
03:55 AM 47.8°F8.8°C 36.5°F2.5°C 70% 1.8 mph SW2.9 kmh SW 3.1 mph5.0 kmh 29.91 in1012.9 mb 0.00 in0.0 mm 0.00 in0.0 mm 0.00 in0.0 mm
04:08 AM 47.3°F8.5°C 36.0°F2.2°C 70% 1.8 mph SW2.9 kmh SW 3.8 mph6.1 kmh 29.92 in1013.2 mb 0.00 in0.0 mm 0.00 in0.0 mm 0.00 in0.0 mm
04:35 AM 47.1°F8.4°C 36.1°F2.3°C 71% 1.8 mph SW2.9 kmh SW 4.3 mph6.9 kmh 29.92 in1013.2 mb 0.00 in0.0 mm 0.00 in0.0 mm 0.00 in0.0 mm
04:55 AM 46.9°F8.3°C 36.0°F2.2°C 71% 2.5 mph SW4.0 kmh SW 4.9 mph7.9 kmh 29.93 in1013.5 mb 0.00 in0.0 mm 0.00 in0.0 mm 0.00 in0.0 mm
05:08 AM 46.8°F8.2°C 35.8°F2.1°C 71% 1.8 mph SW2.9 kmh SW 3.8 mph6.1 kmh 29.93 in1013.5 mb 0.00 in0.0 mm 0.00 in0.0 mm 0.00 in0.0 mm
05:21 AM 46.6°F8.1°C 35.6°F2.0°C 71% 1.3 mph SW2.1 kmh SW 3.1 mph5.0 kmh 29.93 in1013.5 mb 0.00 in0.0 mm 0.00 in0.0 mm 0.00 in0.0 mm
05:49 AM 46.4°F8.0°C 35.4°F1.9°C 71% 1.3 mph SW2.1 kmh SW 3.8 mph6.1 kmh 29.94 in1013.9 mb 0.00 in0.0 mm 0.00 in0.0 mm 0.00 in0.0 mm
06:09 AM 46.4°F8.0°C 35.4°F1.9°C 71% 1.8 mph SW2.9 kmh SW 3.8 mph6.1 kmh 29.96 in1014.6 mb 0.00 in0.0 mm 0.00 in0.0 mm 0.00 in0.0 mm
06:35 AM 46.4°F8.0°C 35.4°F1.9°C 71% 1.8 mph SW2.9 kmh SW 4.3 mph6.9 kmh 29.96 in1014.6 mb 0.00 in0.0 mm 0.00 in0.0 mm 0.00 in0.0 mm
06:55 AM 46.6°F8.1°C 35.6°F2.0°C 71% 1.8 mph SW2.9 kmh SW 4.3 mph6.9 kmh 29.96 in1014.6 mb 0.00 in0.0 mm 0.00 in0.0 mm 0.00 in0.0 mm
07:15 AM 47.3°F8.5°C 36.3°F2.4°C 71% 2.5 mph SW4.0 kmh SW 4.9 mph7.9 kmh 29.97 in1014.9 mb 0.00 in0.0 mm 0.00 in0.0 mm 0.00 in0.0 mm
07:35 AM 47.7°F8.7°C 36.7°F2.6°C 71% 2.5 mph SW4.0 kmh SW 4.9 mph7.9 kmh 29.98 in1015.2 mb 0.00 in0.0 mm 0.00 in0.0 mm 0.00 in0.0 mm
07:55 AM 48.4°F9.1°C 37.4°F3.0°C 71% 1.8 mph SW2.9 kmh SW 3.8 mph6.1 kmh 29.99 in1015.6 mb 0.00 in0.0 mm 0.00 in0.0 mm 0.00 in0.0 mm
08:15 AM 49.5°F9.7°C 38.5°F3.6°C 71% 1.8 mph WSW2.9 kmh WSW 3.8 mph6.1 kmh 29.99 in1015.6 mb 0.00 in0.0 mm 0.00 in0.0 mm 0.00 in0.0 mm
08:35 AM 50.5°F10.3°C 39.9°F4.4°C 72% 1.8 mph WSW2.9 kmh WSW 4.9 mph7.9 kmh 30.00 in1015.9 mb 0.00 in0.0 mm 0.00 in0.0 mm 0.00 in0.0 mm
08:55 AM 51.4°F10.8°C 40.6°F4.8°C 72% 3.1 mph WSW5.0 kmh WSW 7.4 mph11.9 kmh 30.01 in1016.3 mb 0.00 in0.0 mm 0.00 in0.0 mm 0.00 in0.0 mm
09:01 AM 52.2°F11.2°C 41.4°F5.2°C 72% 3.1 mph SW5.0 kmh SW 7.4 mph11.9 kmh 30.01 in1016.3 mb 0.00 in0.0 mm 0.00 in0.0 mm 0.00 in0.0 mm
09:35 AM 53.8°F12.1°C 42.6°F5.9°C 71% 3.1 mph W5.0 kmh W 8.7 mph14.0 kmh 30.01 in1016.3 mb 0.00 in0.0 mm 0.00 in0.0 mm 0.00 in0.0 mm
09:41 AM 54.5°F12.5°C 42.8°F6.0°C 70% 3.8 mph WSW6.1 kmh WSW 11.9 mph19.2 kmh 30.02 in1016.6 mb 0.00 in0.0 mm 0.00 in0.0 mm 0.00 in0.0 mm
10:06 AM 55.0°F12.8°C 42.6°F5.9°C 68% 3.8 mph WSW6.1 kmh WSW 10.5 mph16.9 kmh 30.02 in1016.6 mb 0.00 in0.0 mm 0.00 in0.0 mm 0.00 in0.0 mm
10:26 AM 56.3°F13.5°C 43.3°F6.3°C 67% 3.8 mph WSW6.1 kmh WSW 7.4 mph11.9 kmh 30.03 in1016.9 mb 0.00 in0.0 mm 0.00 in0.0 mm 0.00 in0.0 mm
10:42 AM 56.7°F13.7°C 43.3°F6.3°C 66% 3.1 mph WSW5.0 kmh WSW 8.1 mph13.0 kmh 30.03 in1016.9 mb 0.00 in0.0 mm 0.00 in0.0 mm 0.00 in0.0 mm
11:03 AM 56.7°F13.7°C 43.0°F6.1°C 65% 4.3 mph WSW6.9 kmh WSW 9.4 mph15.1 kmh 30.04 in1017.3 mb 0.00 in0.0 mm 0.00 in0.0 mm 0.00 in0.0 mm
11:28 AM 56.7°F13.7°C 43.0°F6.1°C 65% 3.1 mph WSW5.0 kmh WSW 7.4 mph11.9 kmh 30.04 in1017.3 mb 0.00 in0.0 mm 0.00 in0.0 mm 0.00 in0.0 mm
11:41 AM 56.5°F13.6°C 42.4°F5.8°C 64% 3.8 mph WSW6.1 kmh WSW 8.7 mph14.0 kmh 30.04 in1017.3 mb 0.00 in0.0 mm 0.00 in0.0 mm 0.00 in0.0 mm
12:01 PM 57.4°F14.1°C 42.8°F6.0°C 63% 3.8 mph SW6.1 kmh SW 9.8 mph15.8 kmh 30.05 in1017.6 mb 0.00 in0.0 mm 0.00 in0.0 mm 0.00 in0.0 mm
12:22 PM 57.6°F14.2°C 41.9°F5.5°C 60% 3.8 mph WSW6.1 kmh WSW 9.4 mph15.1 kmh 30.05 in1017.6 mb 0.00 in0.0 mm 0.00 in0.0 mm 0.00 in0.0 mm
12:41 PM 57.6°F14.2°C 41.4°F5.2°C 59% 4.3 mph W6.9 kmh W 8.7 mph14.0 kmh 30.05 in1017.6 mb 0.00 in0.0 mm 0.00 in0.0 mm 0.00 in0.0 mm
01:02 PM 58.6°F14.8°C 42.4°F5.8°C 59% 3.1 mph WSW5.0 kmh WSW 8.1 mph13.0 kmh 30.05 in1017.6 mb 0.00 in0.0 mm 0.00 in0.0 mm 0.00 in0.0 mm
01:27 PM 60.4°F15.8°C 42.4°F5.8°C 55% 3.8 mph W6.1 kmh W 12.5 mph20.1 kmh 30.06 in1017.9 mb 0.00 in0.0 mm 0.00 in0.0 mm 0.00 in0.0 mm
01:46 PM 61.3°F16.3°C 43.3°F6.3°C 55% 3.8 mph WSW6.1 kmh WSW 8.1 mph13.0 kmh 30.05 in1017.6 mb 0.00 in0.0 mm 0.00 in0.0 mm 0.00 in0.0 mm
02:03 PM 61.7°F16.5°C 42.8°F6.0°C 53% 4.3 mph W6.9 kmh W 9.4 mph15.1 kmh 30.06 in1017.9 mb 0.00 in0.0 mm 0.00 in0.0 mm 0.00 in0.0 mm
02:23 PM 61.9°F16.6°C 43.0°F6.1°C 53% 3.8 mph W6.1 kmh W 8.7 mph14.0 kmh 30.06 in1017.9 mb 0.00 in0.0 mm 0.00 in0.0 mm 0.00 in0.0 mm
02:49 PM 61.3°F16.3°C 42.6°F5.9°C 53% 3.1 mph WSW5.0 kmh WSW 9.4 mph15.1 kmh 30.06 in1017.9 mb 0.00 in0.0 mm 0.00 in0.0 mm 0.00 in0.0 mm
03:09 PM 60.3°F15.7°C 41.9°F5.5°C 54% 2.5 mph WSW4.0 kmh WSW 6.9 mph11.1 kmh 30.06 in1017.9 mb 0.00 in0.0 mm 0.00 in0.0 mm 0.00 in0.0 mm
03:29 PM 61.0°F16.1°C 41.7°F5.4°C 52% 4.9 mph W7.9 kmh W 9.8 mph15.8 kmh 30.07 in1018.3 mb 0.00 in0.0 mm 0.00 in0.0 mm 0.00 in0.0 mm
03:55 PM 60.8°F16.0°C 41.7°F5.4°C 52% 3.1 mph W5.0 kmh W 7.4 mph11.9 kmh 30.07 in1018.3 mb 0.00 in0.0 mm 0.00 in0.0 mm 0.00 in0.0 mm
04:15 PM 61.7°F16.5°C 42.4°F5.8°C 52% 3.8 mph W6.1 kmh W 8.7 mph14.0 kmh 30.07 in1018.3 mb 0.00 in0.0 mm 0.00 in0.0 mm 0.00 in0.0 mm
04:35 PM 62.2°F16.8°C 41.7°F5.4°C 49% 4.3 mph W6.9 kmh W 9.4 mph15.1 kmh 30.07 in1018.3 mb 0.00 in0.0 mm 0.00 in0.0 mm 0.00 in0.0 mm
04:55 PM 60.6°F15.9°C 41.0°F5.0°C 51% 3.1 mph WSW5.0 kmh WSW 9.4 mph15.1 kmh 30.07 in1018.3 mb 0.00 in0.0 mm 0.00 in0.0 mm 0.00 in0.0 mm
05:15 PM 60.3°F15.7°C 40.6°F4.8°C 51% 3.8 mph W6.1 kmh W 8.1 mph13.0 kmh 30.07 in1018.3 mb 0.00 in0.0 mm 0.00 in0.0 mm 0.00 in0.0 mm
05:25 PM 60.4°F15.8°C 40.8°F4.9°C 51% 3.8 mph WSW6.1 kmh WSW 8.7 mph14.0 kmh 30.07 in1018.3 mb 0.00 in0.0 mm 0.00 in0.0 mm 0.00 in0.0 mm
05:45 PM 60.1°F15.6°C 41.0°F5.0°C 52% 2.5 mph W4.0 kmh W 4.9 mph7.9 kmh 30.08 in1018.6 mb 0.00 in0.0 mm 0.00 in0.0 mm 0.00 in0.0 mm
06:05 PM 59.9°F15.5°C 40.8°F4.9°C 52% 2.5 mph W4.0 kmh W 5.6 mph9.0 kmh 30.08 in1018.6 mb 0.00 in0.0 mm 0.00 in0.0 mm 0.00 in0.0 mm
06:26 PM 59.4°F15.2°C 40.3°F4.6°C 52% 2.5 mph WNW4.0 kmh WNW 5.6 mph9.0 kmh 30.09 in1019.0 mb 0.00 in0.0 mm 0.00 in0.0 mm 0.00 in0.0 mm
06:47 PM 58.6°F14.8°C 39.6°F4.2°C 52% 2.5 mph WNW4.0 kmh WNW 7.4 mph11.9 kmh 30.10 in1019.3 mb 0.00 in0.0 mm 0.00 in0.0 mm 0.00 in0.0 mm
07:07 PM 57.9°F14.4°C 39.0°F3.9°C 52% 1.8 mph W2.9 kmh W 3.8 mph6.1 kmh 30.11 in1019.6 mb 0.00 in0.0 mm 0.00 in0.0 mm 0.00 in0.0 mm
07:22 PM 57.2°F14.0°C 38.7°F3.7°C 53% 1.8 mph W2.9 kmh W 4.3 mph6.9 kmh 30.11 in1019.6 mb 0.00 in0.0 mm 0.00 in0.0 mm 0.00 in0.0 mm
07:44 PM 56.1°F13.4°C 38.1°F3.4°C 54% 1.3 mph W2.1 kmh W 3.1 mph5.0 kmh 30.12 in1020.0 mb 0.00 in0.0 mm 0.00 in0.0 mm 0.00 in0.0 mm
08:02 PM 55.2°F12.9°C 37.6°F3.1°C 55% 0.7 mph W1.1 kmh W 1.8 mph2.9 kmh 30.13 in1020.3 mb 0.00 in0.0 mm 0.00 in0.0 mm 0.00 in0.0 mm
08:24 PM 53.8°F12.1°C 36.3°F2.4°C 55% Calm Calm 0.7 mph1.1 kmh 30.13 in1020.3 mb 0.00 in0.0 mm 0.00 in0.0 mm 0.00 in0.0 mm
08:47 PM 52.3°F11.3°C 35.8°F2.1°C 57% 0.7 mph S1.1 kmh S 1.3 mph2.1 kmh 30.14 in1020.7 mb 0.00 in0.0 mm 0.00 in0.0 mm 0.00 in0.0 mm
09:08 PM 51.4°F10.8°C 35.2°F1.8°C 58% Calm Calm 1.3 mph2.1 kmh 30.15 in1021.0 mb 0.00 in0.0 mm 0.00 in0.0 mm 0.00 in0.0 mm
09:28 PM 50.5°F10.3°C 34.5°F1.4°C 58% 0.7 mph W1.1 kmh W 1.3 mph2.1 kmh 30.15 in1021.0 mb 0.00 in0.0 mm 0.00 in0.0 mm 0.00 in0.0 mm
09:48 PM 49.5°F9.7°C 33.8°F1.0°C 59% 0.7 mph SSE1.1 kmh SSE 1.3 mph2.1 kmh 30.15 in1021.0 mb 0.00 in0.0 mm 0.00 in0.0 mm 0.00 in0.0 mm
10:09 PM 49.3°F9.6°C 33.6°F0.9°C 59% 1.3 mph SSE2.1 kmh SSE 2.5 mph4.0 kmh 30.15 in1021.0 mb 0.00 in0.0 mm 0.00 in0.0 mm 0.00 in0.0 mm
10:35 PM 49.5°F9.7°C 34.2°F1.2°C 60% 0.7 mph SSE1.1 kmh SSE 1.8 mph2.9 kmh 30.15 in1021.0 mb 0.00 in0.0 mm 0.00 in0.0 mm 0.00 in0.0 mm
10:55 PM 49.3°F9.6°C 34.0°F1.1°C 60% Calm Calm 1.3 mph2.1 kmh 30.16 in1021.3 mb 0.00 in0.0 mm 0.00 in0.0 mm 0.00 in0.0 mm
11:15 PM 48.4°F9.1°C 33.6°F0.9°C 61% 0.7 mph E1.1 kmh E 1.3 mph2.1 kmh 30.17 in1021.7 mb 0.00 in0.0 mm 0.00 in0.0 mm 0.00 in0.0 mm
11:35 PM 47.8°F8.8°C 33.1°F0.6°C 61% 1.3 mph SSE2.1 kmh SSE 3.1 mph5.0 kmh 30.16 in1021.3 mb 0.00 in0.0 mm 0.00 in0.0 mm 0.00 in0.0 mm
11:49 PM 48.7°F9.3°C 34.3°F1.3°C 62% 1.3 mph SE2.1 kmh SE 3.1 mph5.0 kmh 30.16 in1021.3 mb 0.00 in0.0 mm 0.00 in0.0 mm 0.00 in0.0 mm